sensor_id;sensor_type;location;lat;lon;timestamp;pressure;altitude;pressure_sealevel;temperature;humidity
31483;BME280;18103;52.246;8.052;2023-05-15T00:00:50;100141.69;;;13.85;73.90
31483;BME280;18103;52.246;8.052;2023-05-15T00:03:16;100154.53;;;13.80;73.86
31483;BME280;18103;52.246;8.052;2023-05-15T00:05:44;100149.94;;;13.82;74.01
31483;BME280;18103;52.246;8.052;2023-05-15T00:08:12;100142.69;;;13.75;73.57
31483;BME280;18103;52.246;8.052;2023-05-15T00:10:39;100141.63;;;13.95;72.58
31483;BME280;18103;52.246;8.052;2023-05-15T00:13:05;100135.75;;;13.92;72.73
31483;BME280;18103;52.246;8.052;2023-05-15T00:15:30;100138.31;;;13.83;73.77
31483;BME280;18103;52.246;8.052;2023-05-15T00:17:57;100140.88;;;13.75;73.64
31483;BME280;18103;52.246;8.052;2023-05-15T00:20:23;100132.41;;;13.62;73.39
31483;BME280;18103;52.246;8.052;2023-05-15T00:22:48;100129.75;;;13.62;73.61
31483;BME280;18103;52.246;8.052;2023-05-15T00:25:14;100128.38;;;13.58;73.75
31483;BME280;18103;52.246;8.052;2023-05-15T00:27:39;100128.66;;;13.64;73.61
31483;BME280;18103;52.246;8.052;2023-05-15T00:30:05;100130.06;;;13.59;73.76
31483;BME280;18103;52.246;8.052;2023-05-15T00:32:31;100129.66;;;13.54;74.19
31483;BME280;18103;52.246;8.052;2023-05-15T00:34:56;100133.28;;;13.52;74.01
31483;BME280;18103;52.246;8.052;2023-05-15T00:37:22;100138.72;;;13.51;73.67
31483;BME280;18103;52.246;8.052;2023-05-15T00:39:52;100131.50;;;13.43;73.45
31483;BME280;18103;52.246;8.052;2023-05-15T00:42:21;100131.50;;;13.33;73.85
31483;BME280;18103;52.246;8.052;2023-05-15T00:44:47;100120.06;;;13.23;74.83
31483;BME280;18103;52.246;8.052;2023-05-15T00:47:14;100120.81;;;13.15;75.54
31483;BME280;18103;52.246;8.052;2023-05-15T00:49:40;100124.72;;;13.11;75.50
31483;BME280;18103;52.246;8.052;2023-05-15T00:52:10;100126.09;;;13.15;75.65
31483;BME280;18103;52.246;8.052;2023-05-15T00:54:38;100121.09;;;13.12;75.54
31483;BME280;18103;52.246;8.052;2023-05-15T00:57:04;100129.44;;;13.17;75.28
31483;BME280;18103;52.246;8.052;2023-05-15T00:59:32;100130.16;;;13.10;75.51
31483;BME280;18103;52.246;8.052;2023-05-15T01:01:58;100118.72;;;13.09;75.40
31483;BME280;18103;52.246;8.052;2023-05-15T01:04:26;100120.97;;;13.04;75.55
31483;BME280;18103;52.246;8.052;2023-05-15T01:06:54;100117.22;;;13.07;75.98
31483;BME280;18103;52.246;8.052;2023-05-15T01:09:26;100118.72;;;12.99;76.53
31483;BME280;18103;52.246;8.052;2023-05-15T01:11:56;100110.94;;;12.88;77.40
31483;BME280;18103;52.246;8.052;2023-05-15T01:14:21;100115.00;;;12.82;77.76
31483;BME280;18103;52.246;8.052;2023-05-15T01:16:47;100112.91;;;12.76;77.01
31483;BME280;18103;52.246;8.052;2023-05-15T01:19:14;100107.03;;;12.82;77.10
31483;BME280;18103;52.246;8.052;2023-05-15T01:25:17;100109.53;;;12.94;75.88
31483;BME280;18103;52.246;8.052;2023-05-15T01:35:37;100098.97;;;12.74;76.67
31483;BME280;18103;52.246;8.052;2023-05-15T01:40:35;100102.16;;;12.88;75.36
31483;BME280;18103;52.246;8.052;2023-05-15T01:43:07;100099.53;;;12.88;75.56
31483;BME280;18103;52.246;8.052;2023-05-15T01:45:33;100098.81;;;12.76;77.03
31483;BME280;18103;52.246;8.052;2023-05-15T01:48:00;100095.63;;;12.72;77.09
31483;BME280;18103;52.246;8.052;2023-05-15T01:50:31;100086.28;;;12.68;76.46
31483;BME280;18103;52.246;8.052;2023-05-15T01:52:59;100094.09;;;12.70;77.21
31483;BME280;18103;52.246;8.052;2023-05-15T01:55:28;100091.31;;;12.61;77.81
31483;BME280;18103;52.246;8.052;2023-05-15T01:57:55;100091.47;;;12.60;77.35
31483;BME280;18103;52.246;8.052;2023-05-15T02:00:24;100081.28;;;12.65;77.13
31483;BME280;18103;52.246;8.052;2023-05-15T02:02:53;100091.47;;;12.60;77.23
31483;BME280;18103;52.246;8.052;2023-05-15T02:05:21;100082.25;;;12.44;78.57
31483;BME280;18103;52.246;8.052;2023-05-15T02:07:49;100081.00;;;12.48;78.26
31483;BME280;18103;52.246;8.052;2023-05-15T02:10:16;100078.34;;;12.39;78.59
31483;BME280;18103;52.246;8.052;2023-05-15T02:12:42;100078.94;;;12.32;78.74
31483;BME280;18103;52.246;8.052;2023-05-15T02:15:09;100076.97;;;12.44;78.31
31483;BME280;18103;52.246;8.052;2023-05-15T02:17:40;100081.16;;;12.57;77.46
31483;BME280;18103;52.246;8.052;2023-05-15T02:20:06;100081.16;;;12.47;77.93
31483;BME280;18103;52.246;8.052;2023-05-15T02:22:32;100079.75;;;12.53;77.07
31483;BME280;18103;52.246;8.052;2023-05-15T02:24:58;100079.03;;;12.50;76.89
31483;BME280;18103;52.246;8.052;2023-05-15T02:27:26;100076.00;;;12.45;77.85
31483;BME280;18103;52.246;8.052;2023-05-15T02:38:00;100069.59;;;12.48;77.37
31483;BME280;18103;52.246;8.052;2023-05-15T02:40:27;100070.00;;;12.43;77.09
31483;BME280;18103;52.246;8.052;2023-05-15T02:42:55;100074.31;;;12.44;76.70
31483;BME280;18103;52.246;8.052;2023-05-15T02:45:23;100071.81;;;12.33;78.00
31483;BME280;18103;52.246;8.052;2023-05-15T02:47:49;100068.88;;;12.26;78.35
31483;BME280;18103;52.246;8.052;2023-05-15T02:50:17;100067.47;;;12.32;78.56
31483;BME280;18103;52.246;8.052;2023-05-15T02:52:42;100063.03;;;12.23;78.45
31483;BME280;18103;52.246;8.052;2023-05-15T02:55:08;100065.94;;;12.10;79.92
31483;BME280;18103;52.246;8.052;2023-05-15T02:57:34;100064.28;;;12.09;79.75
31483;BME280;18103;52.246;8.052;2023-05-15T03:00:00;100069.28;;;12.12;79.11
31483;BME280;18103;52.246;8.052;2023-05-15T03:02:25;100074.97;;;12.17;79.27
31483;BME280;18103;52.246;8.052;2023-05-15T03:04:51;100059.41;;;12.24;78.99
31483;BME280;18103;52.246;8.052;2023-05-15T03:07:16;100063.03;;;12.23;78.12
31483;BME280;18103;52.246;8.052;2023-05-15T03:09:44;100062.75;;;12.26;78.59
31483;BME280;18103;52.246;8.052;2023-05-15T03:12:09;100062.03;;;12.24;78.27
31483;BME280;18103;52.246;8.052;2023-05-15T03:14:35;100058.00;;;12.20;78.84
31483;BME280;18103;52.246;8.052;2023-05-15T03:17:03;100048.25;;;12.10;79.55
31483;BME280;18103;52.246;8.052;2023-05-15T03:19:28;100053.81;;;12.07;79.38
31483;BME280;18103;52.246;8.052;2023-05-15T03:21:54;100055.34;;;12.10;79.22
31483;BME280;18103;52.246;8.052;2023-05-15T03:24:19;100054.09;;;12.14;79.36
31483;BME280;18103;52.246;8.052;2023-05-15T03:26:47;100043.09;;;11.99;79.52
31483;BME280;18103;52.246;8.052;2023-05-15T03:29:12;100048.88;;;11.93;79.90
31483;BME280;18103;52.246;8.052;2023-05-15T03:31:40;100049.91;;;12.02;79.76
31483;BME280;18103;52.246;8.052;2023-05-15T03:34:08;100050.47;;;12.05;79.40
31483;BME280;18103;52.246;8.052;2023-05-15T03:36:38;100049.34;;;11.98;80.31
31483;BME280;18103;52.246;8.052;2023-05-15T03:39:03;100044.75;;;12.00;79.59
31483;BME280;18103;52.246;8.052;2023-05-15T03:41:29;100049.78;;;12.03;79.70
31483;BME280;18103;52.246;8.052;2023-05-15T03:43:54;100046.56;;;12.00;79.21
31483;BME280;18103;52.246;8.052;2023-05-15T03:46:19;100045.84;;;11.97;79.63
31483;BME280;18103;52.246;8.052;2023-05-15T03:48:45;100044.75;;;12.00;79.24
31483;BME280;18103;52.246;8.052;2023-05-15T03:51:13;100040.19;;;12.02;79.05
31483;BME280;18103;52.246;8.052;2023-05-15T03:53:41;100044.56;;;11.92;79.61
31483;BME280;18103;52.246;8.052;2023-05-15T03:56:09;100051.81;;;11.90;79.45
31483;BME280;18103;52.246;8.052;2023-05-15T03:58:35;100040.03;;;11.94;80.13
31483;BME280;18103;52.246;8.052;2023-05-15T04:01:05;100031.75;;;11.87;80.87
31483;BME280;18103;52.246;8.052;2023-05-15T04:03:33;100047.50;;;11.89;80.09
31483;BME280;18103;52.246;8.052;2023-05-15T04:05:59;100052.09;;;11.87;79.18
31483;BME280;18103;52.246;8.052;2023-05-15T04:08:24;100050.84;;;11.91;78.75
31483;BME280;18103;52.246;8.052;2023-05-15T04:10:52;100059.47;;;11.93;78.87
31483;BME280;18103;52.246;8.052;2023-05-15T04:13:19;100056.72;;;11.94;79.52
31483;BME280;18103;52.246;8.052;2023-05-15T04:15:47;100056.72;;;11.94;79.22
31483;BME280;18103;52.246;8.052;2023-05-15T04:18:15;100049.91;;;12.02;79.14
31483;BME280;18103;52.246;8.052;2023-05-15T04:20:43;100051.03;;;11.99;79.68
31483;BME280;18103;52.246;8.052;2023-05-15T04:23:11;100052.97;;;11.97;79.90
31483;BME280;18103;52.246;8.052;2023-05-15T04:25:36;100048.13;;;12.02;79.98
31483;BME280;18103;52.246;8.052;2023-05-15T04:28:04;100051.06;;;12.09;79.28
31483;BME280;18103;52.246;8.052;2023-05-15T04:30:30;100051.16;;;12.17;79.54
31483;BME280;18103;52.246;8.052;2023-05-15T04:32:59;100046.16;;;12.04;80.69
31483;BME280;18103;52.246;8.052;2023-05-15T04:35:26;100054.53;;;12.09;80.08
31483;BME280;18103;52.246;8.052;2023-05-15T04:37:54;100047.41;;;12.00;81.29
31483;BME280;18103;52.246;8.052;2023-05-15T04:40:20;100052.69;;;12.10;80.88
31483;BME280;18103;52.246;8.052;2023-05-15T04:42:45;100051.88;;;12.09;80.94
31483;BME280;18103;52.246;8.052;2023-05-15T04:45:10;100052.16;;;12.06;82.08
31483;BME280;18103;52.246;8.052;2023-05-15T04:47:36;100050.78;;;12.31;81.50
31483;BME280;18103;52.246;8.052;2023-05-15T04:50:02;100067.63;;;12.30;80.58
31483;BME280;18103;52.246;8.052;2023-05-15T04:52:30;100067.06;;;12.27;81.66
31483;BME280;18103;52.246;8.052;2023-05-15T04:54:58;100068.59;;;12.20;82.39
31483;BME280;18103;52.246;8.052;2023-05-15T04:57:25;100062.91;;;12.44;81.14
31483;BME280;18103;52.246;8.052;2023-05-15T04:59:53;100061.75;;;12.37;82.18
31483;BME280;18103;52.246;8.052;2023-05-15T05:02:19;100061.75;;;12.37;81.70
31483;BME280;18103;52.246;8.052;2023-05-15T05:04:46;100051.06;;;12.58;81.15
31483;BME280;18103;52.246;8.052;2023-05-15T05:07:11;100067.31;;;12.73;81.53
31483;BME280;18103;52.246;8.052;2023-05-15T05:09:38;100064.00;;;12.41;82.42
31483;BME280;18103;52.246;8.052;2023-05-15T05:12:09;100055.94;;;12.23;83.05
31483;BME280;18103;52.246;8.052;2023-05-15T05:14:34;100063.88;;;12.33;83.55
31483;BME280;18103;52.246;8.052;2023-05-15T05:17:00;100058.72;;;12.51;82.37
31483;BME280;18103;52.246;8.052;2023-05-15T05:19:26;100059.41;;;12.33;83.25
31483;BME280;18103;52.246;8.052;2023-05-15T05:21:56;100063.56;;;12.65;82.08
31483;BME280;18103;52.246;8.052;2023-05-15T05:24:25;100062.59;;;12.76;82.20
31483;BME280;18103;52.246;8.052;2023-05-15T05:26:53;100065.09;;;12.78;82.18
31483;BME280;18103;52.246;8.052;2023-05-15T05:29:22;100055.19;;;12.70;81.75
31483;BME280;18103;52.246;8.052;2023-05-15T05:31:50;100066.50;;;12.72;82.15
31483;BME280;18103;52.246;8.052;2023-05-15T05:34:15;100068.69;;;12.87;81.21
31483;BME280;18103;52.246;8.052;2023-05-15T05:36:45;100072.31;;;12.95;80.97
31483;BME280;18103;52.246;8.052;2023-05-15T05:39:13;100061.00;;;13.03;81.23
31483;BME280;18103;52.246;8.052;2023-05-15T05:41:38;100068.13;;;13.03;81.81
31483;BME280;18103;52.246;8.052;2023-05-15T05:44:08;100069.91;;;13.12;81.72
31483;BME280;18103;52.246;8.052;2023-05-15T05:46:34;100068.41;;;12.90;82.25
31483;BME280;18103;52.246;8.052;2023-05-15T05:48:59;100076.66;;;12.87;82.39
31483;BME280;18103;52.246;8.052;2023-05-15T05:51:25;100070.94;;;12.81;82.95
31483;BME280;18103;52.246;8.052;2023-05-15T05:53:52;100079.03;;;12.80;83.16
31483;BME280;18103;52.246;8.052;2023-05-15T05:56:20;100087.53;;;12.74;83.33
31483;BME280;18103;52.246;8.052;2023-05-15T05:58:46;100073.56;;;12.91;83.54
31483;BME280;18103;52.246;8.052;2023-05-15T06:01:14;100084.72;;;12.95;83.01
31483;BME280;18103;52.246;8.052;2023-05-15T06:03:42;100074.19;;;13.23;82.65
31483;BME280;18103;52.246;8.052;2023-05-15T06:06:07;100079.47;;;13.32;82.69
31483;BME280;18103;52.246;8.052;2023-05-15T06:08:33;100079.63;;;13.31;82.71
31483;BME280;18103;52.246;8.052;2023-05-15T06:10:58;100073.50;;;13.21;82.32
31483;BME280;18103;52.246;8.052;2023-05-15T06:13:23;100068.59;;;13.26;82.01
31483;BME280;18103;52.246;8.052;2023-05-15T06:15:50;100064.53;;;13.41;81.46
31483;BME280;18103;52.246;8.052;2023-05-15T06:18:15;100066.47;;;13.49;81.90
31483;BME280;18103;52.246;8.052;2023-05-15T06:20:40;100075.13;;;13.41;82.32
31483;BME280;18103;52.246;8.052;2023-05-15T06:23:11;100070.81;;;13.40;81.86
31483;BME280;18103;52.246;8.052;2023-05-15T06:25:39;100066.50;;;13.29;81.93
31483;BME280;18103;52.246;8.052;2023-05-15T06:28:04;100071.22;;;13.45;81.95
31483;BME280;18103;52.246;8.052;2023-05-15T06:30:34;100065.88;;;13.55;81.99
31483;BME280;18103;52.246;8.052;2023-05-15T06:33:00;100073.31;;;13.69;81.27
31483;BME280;18103;52.246;8.052;2023-05-15T06:35:30;100066.00;;;13.81;80.58
31483;BME280;18103;52.246;8.052;2023-05-15T06:37:55;100066.19;;;13.98;80.64
31483;BME280;18103;52.246;8.052;2023-05-15T06:40:20;100067.84;;;13.99;80.92
31483;BME280;18103;52.246;8.052;2023-05-15T06:42:49;100062.13;;;14.22;80.36
31483;BME280;18103;52.246;8.052;2023-05-15T06:45:14;100070.91;;;14.04;80.82
31483;BME280;18103;52.246;8.052;2023-05-15T06:47:44;100063.94;;;14.39;80.13
31483;BME280;18103;52.246;8.052;2023-05-15T06:50:14;100066.13;;;14.44;79.55
31483;BME280;18103;52.246;8.052;2023-05-15T06:52:42;100074.16;;;14.52;79.61
31483;BME280;18103;52.246;8.052;2023-05-15T06:55:07;100075.84;;;14.35;80.21
31483;BME280;18103;52.246;8.052;2023-05-15T06:57:33;100084.28;;;14.48;80.24
31483;BME280;18103;52.246;8.052;2023-05-15T07:00:02;100087.09;;;14.65;80.08
31483;BME280;18103;52.246;8.052;2023-05-15T07:02:29;100084.91;;;15.04;79.33
31483;BME280;18103;52.246;8.052;2023-05-15T07:04:57;100082.06;;;15.06;78.88
31483;BME280;18103;52.246;8.052;2023-05-15T07:07:22;100079.25;;;14.81;78.73
31483;BME280;18103;52.246;8.052;2023-05-15T07:09:48;100081.19;;;14.97;79.23
31483;BME280;18103;52.246;8.052;2023-05-15T07:12:19;100079.22;;;15.26;77.96
31483;BME280;18103;52.246;8.052;2023-05-15T07:14:44;100073.06;;;15.25;77.81
31483;BME280;18103;52.246;8.052;2023-05-15T07:17:09;100066.66;;;15.44;77.46
31483;BME280;18103;52.246;8.052;2023-05-15T07:19:35;100071.75;;;15.29;77.55
31483;BME280;18103;52.246;8.052;2023-05-15T07:22:03;100067.56;;;15.61;77.46
31483;BME280;18103;52.246;8.052;2023-05-15T07:24:29;100076.88;;;15.65;76.66
31483;BME280;18103;52.246;8.052;2023-05-15T07:26:55;100078.59;;;15.74;76.78
31483;BME280;18103;52.246;8.052;2023-05-15T07:29:23;100079.41;;;15.75;76.46
31483;BME280;18103;52.246;8.052;2023-05-15T07:31:51;100063.22;;;15.95;76.12
31483;BME280;18103;52.246;8.052;2023-05-15T07:34:19;100073.06;;;16.02;75.66
31483;BME280;18103;52.246;8.052;2023-05-15T07:36:44;100076.09;;;15.73;75.90
31483;BME280;18103;52.246;8.052;2023-05-15T07:39:10;100074.84;;;15.85;76.29
31483;BME280;18103;52.246;8.052;2023-05-15T07:41:37;100075.94;;;15.74;75.67
31483;BME280;18103;52.246;8.052;2023-05-15T07:44:03;100076.66;;;15.85;75.49
31483;BME280;18103;52.246;8.052;2023-05-15T07:46:28;100072.41;;;15.66;75.33
31483;BME280;18103;52.246;8.052;2023-05-15T07:48:54;100071.91;;;15.62;75.37
31483;BME280;18103;52.246;8.052;2023-05-15T07:51:19;100081.84;;;15.52;75.50
31483;BME280;18103;52.246;8.052;2023-05-15T07:53:47;100082.25;;;15.73;75.81
31483;BME280;18103;52.246;8.052;2023-05-15T07:56:13;100075.00;;;15.84;75.51
31483;BME280;18103;52.246;8.052;2023-05-15T07:58:41;100068.84;;;15.83;75.16
31483;BME280;18103;52.246;8.052;2023-05-15T08:01:06;100064.28;;;16.27;74.35
31483;BME280;18103;52.246;8.052;2023-05-15T08:03:32;100075.50;;;15.87;74.29
31483;BME280;18103;52.246;8.052;2023-05-15T08:05:58;100070.00;;;15.81;74.70
31483;BME280;18103;52.246;8.052;2023-05-15T08:08:26;100066.41;;;15.98;74.70
31483;BME280;18103;52.246;8.052;2023-05-15T08:10:51;100077.22;;;16.05;74.91
31483;BME280;18103;52.246;8.052;2023-05-15T08:13:17;100082.38;;;15.64;74.29
31483;BME280;18103;52.246;8.052;2023-05-15T08:15:44;100074.91;;;15.67;75.23
31483;BME280;18103;52.246;8.052;2023-05-15T08:18:10;100081.03;;;15.94;75.24
31483;BME280;18103;52.246;8.052;2023-05-15T08:20:36;100076.06;;;15.65;74.84
31483;BME280;18103;52.246;8.052;2023-05-15T08:23:04;100077.84;;;15.82;74.44
31483;BME280;18103;52.246;8.052;2023-05-15T08:25:30;100076.44;;;15.70;74.59
31483;BME280;18103;52.246;8.052;2023-05-15T08:27:57;100074.44;;;15.72;74.26
31483;BME280;18103;52.246;8.052;2023-05-15T08:30:23;100071.59;;;15.73;74.45
31483;BME280;18103;52.246;8.052;2023-05-15T08:32:51;100073.22;;;15.58;73.63
31483;BME280;18103;52.246;8.052;2023-05-15T08:35:17;100075.06;;;15.31;74.60
31483;BME280;18103;52.246;8.052;2023-05-15T08:37:42;100067.91;;;15.23;75.22
31483;BME280;18103;52.246;8.052;2023-05-15T08:40:08;100068.63;;;15.34;75.25
31483;BME280;18103;52.246;8.052;2023-05-15T08:42:42;100071.78;;;15.37;75.05
31483;BME280;18103;52.246;8.052;2023-05-15T08:45:13;100073.63;;;15.37;74.69
31483;BME280;18103;52.246;8.052;2023-05-15T08:47:40;100063.50;;;15.40;75.04
31483;BME280;18103;52.246;8.052;2023-05-15T08:50:08;100073.63;;;15.37;74.91
31483;BME280;18103;52.246;8.052;2023-05-15T08:52:36;100070.09;;;15.28;74.90
31483;BME280;18103;52.246;8.052;2023-05-15T08:55:03;100067.53;;;15.18;74.61
31483;BME280;18103;52.246;8.052;2023-05-15T08:57:28;100069.72;;;15.23;74.66
31483;BME280;18103;52.246;8.052;2023-05-15T08:59:56;100069.75;;;15.31;74.41
31483;BME280;18103;52.246;8.052;2023-05-15T09:02:24;100072.53;;;15.21;74.08
31483;BME280;18103;52.246;8.052;2023-05-15T09:04:52;100071.13;;;15.35;74.26
31483;BME280;18103;52.246;8.052;2023-05-15T09:07:19;100077.81;;;15.48;73.97
31483;BME280;18103;52.246;8.052;2023-05-15T09:09:47;100082.97;;;15.49;74.49
31483;BME280;18103;52.246;8.052;2023-05-15T09:12:21;100076.34;;;15.53;74.10
31483;BME280;18103;52.246;8.052;2023-05-15T09:14:48;100074.63;;;15.44;74.53
31483;BME280;18103;52.246;8.052;2023-05-15T09:17:13;100072.88;;;15.61;74.01
31483;BME280;18103;52.246;8.052;2023-05-15T09:19:38;100069.53;;;15.51;74.30
31483;BME280;18103;52.246;8.052;2023-05-15T09:22:18;100080.03;;;15.61;73.71
31483;BME280;18103;52.246;8.052;2023-05-15T09:24:48;100067.78;;;15.76;72.84
31483;BME280;18103;52.246;8.052;2023-05-15T09:27:15;100074.91;;;15.67;74.11
31483;BME280;18103;52.246;8.052;2023-05-15T09:29:41;100069.88;;;15.99;73.49
31483;BME280;18103;52.246;8.052;2023-05-15T09:32:08;100064.38;;;16.00;73.56
31483;BME280;18103;52.246;8.052;2023-05-15T09:34:38;100079.25;;;15.77;72.96
31483;BME280;18103;52.246;8.052;2023-05-15T09:37:05;100080.03;;;15.61;73.73
31483;BME280;18103;52.246;8.052;2023-05-15T09:39:41;100071.75;;;16.15;72.33
31483;BME280;18103;52.246;8.052;2023-05-15T09:42:13;100076.78;;;16.26;72.89
31483;BME280;18103;52.246;8.052;2023-05-15T09:44:41;100079.78;;;16.23;71.69
31483;BME280;18103;52.246;8.052;2023-05-15T09:47:10;100073.25;;;16.25;72.04
31483;BME280;18103;52.246;8.052;2023-05-15T09:49:37;100073.94;;;16.60;71.98
31483;BME280;18103;52.246;8.052;2023-05-15T09:52:02;100069.09;;;16.31;71.24
31483;BME280;18103;52.246;8.052;2023-05-15T09:54:31;100066.44;;;16.39;70.88
31483;BME280;18103;52.246;8.052;2023-05-15T09:57:06;100072.13;;;16.77;70.49
31483;BME280;18103;52.246;8.052;2023-05-15T09:59:42;100065.28;;;16.50;70.58
31483;BME280;18103;52.246;8.052;2023-05-15T10:02:07;100065.97;;;16.44;70.52
31483;BME280;18103;52.246;8.052;2023-05-15T10:04:36;100065.47;;;16.57;71.19
31483;BME280;18103;52.246;8.052;2023-05-15T10:07:05;100069.94;;;16.81;70.99
31483;BME280;18103;52.246;8.052;2023-05-15T10:09:34;100071.44;;;17.08;70.69
31483;BME280;18103;52.246;8.052;2023-05-15T10:11:59;100071.66;;;17.55;69.94
31483;BME280;18103;52.246;8.052;2023-05-15T10:14:25;100071.28;;;17.10;69.85
31483;BME280;18103;52.246;8.052;2023-05-15T10:16:53;100074.94;;;16.84;70.32
31483;BME280;18103;52.246;8.052;2023-05-15T10:19:20;100070.94;;;16.97;70.49
31483;BME280;18103;52.246;8.052;2023-05-15T10:21:51;100075.44;;;17.13;70.35
31483;BME280;18103;52.246;8.052;2023-05-15T10:24:24;100072.38;;;17.40;70.27
31483;BME280;18103;52.246;8.052;2023-05-15T10:26:53;100073.72;;;17.36;69.35
31483;BME280;18103;52.246;8.052;2023-05-15T10:29:23;100076.19;;;17.46;69.46
31483;BME280;18103;52.246;8.052;2023-05-15T10:31:51;100077.22;;;17.76;68.62
31483;BME280;18103;52.246;8.052;2023-05-15T10:34:17;100078.44;;;17.66;68.80
31483;BME280;18103;52.246;8.052;2023-05-15T10:36:48;100066.88;;;17.73;68.50
31483;BME280;18103;52.246;8.052;2023-05-15T10:39:16;100071.69;;;17.78;68.13
31483;BME280;18103;52.246;8.052;2023-05-15T10:41:43;100075.09;;;17.64;67.88
31483;BME280;18103;52.246;8.052;2023-05-15T10:44:10;100069.66;;;17.88;68.00
31483;BME280;18103;52.246;8.052;2023-05-15T10:46:36;100076.72;;;18.12;67.48
31483;BME280;18103;52.246;8.052;2023-05-15T10:49:02;100069.66;;;17.88;67.10
31483;BME280;18103;52.246;8.052;2023-05-15T10:51:34;100061.22;;;18.08;66.08
31483;BME280;18103;52.246;8.052;2023-05-15T10:54:04;100061.88;;;18.10;65.97
31483;BME280;18103;52.246;8.052;2023-05-15T10:56:33;100052.56;;;18.29;66.00
31483;BME280;18103;52.246;8.052;2023-05-15T10:59:08;100052.19;;;17.77;66.43
31483;BME280;18103;52.246;8.052;2023-05-15T11:01:36;100047.88;;;18.31;65.50
31483;BME280;18103;52.246;8.052;2023-05-15T11:06:40;100051.41;;;18.70;65.26
31483;BME280;18103;52.246;8.052;2023-05-15T11:12:25;100051.38;;;19.08;64.39
31483;BME280;18103;52.246;8.052;2023-05-15T11:18:07;100035.97;;;19.40;63.49
31483;BME280;18103;52.246;8.052;2023-05-15T11:20:42;100042.06;;;19.48;62.69
31483;BME280;18103;52.246;8.052;2023-05-15T11:23:26;100037.50;;;19.79;61.71
31483;BME280;18103;52.246;8.052;2023-05-15T11:25:54;100034.66;;;19.80;61.50
31483;BME280;18103;52.246;8.052;2023-05-15T11:28:21;100032.19;;;20.00;61.60
31483;BME280;18103;52.246;8.052;2023-05-15T11:30:50;100031.97;;;19.65;61.46
31483;BME280;18103;52.246;8.052;2023-05-15T11:33:19;100016.38;;;20.27;60.56
31483;BME280;18103;52.246;8.052;2023-05-15T11:35:47;100019.69;;;20.29;60.54
31483;BME280;18103;52.246;8.052;2023-05-15T11:38:18;100021.22;;;20.39;60.08
31483;BME280;18103;52.246;8.052;2023-05-15T11:40:50;100024.19;;;20.72;60.42
31483;BME280;18103;52.246;8.052;2023-05-15T11:43:23;100025.94;;;20.37;60.60
31483;BME280;18103;52.246;8.052;2023-05-15T11:45:57;100016.66;;;20.61;59.05
31483;BME280;18103;52.246;8.052;2023-05-15T11:48:25;100015.28;;;20.43;58.34
31483;BME280;18103;52.246;8.052;2023-05-15T11:50:55;100013.03;;;20.68;58.55
31483;BME280;18103;52.246;8.052;2023-05-15T11:53:23;100020.09;;;20.76;58.25
31483;BME280;18103;52.246;8.052;2023-05-15T11:55:52;100014.63;;;20.91;58.28
31483;BME280;18103;52.246;8.052;2023-05-15T11:58:20;100006.72;;;20.83;56.38
31483;BME280;18103;52.246;8.052;2023-05-15T12:00:51;100011.88;;;20.84;57.25
31483;BME280;18103;52.246;8.052;2023-05-15T12:03:26;100003.53;;;21.01;56.92
31483;BME280;18103;52.246;8.052;2023-05-15T12:05:54;100009.38;;;21.53;56.41
31483;BME280;18103;52.246;8.052;2023-05-15T12:08:20;100001.09;;;21.48;55.27
31483;BME280;18103;52.246;8.052;2023-05-15T12:10:48;99999.31;;;21.62;55.76
31483;BME280;18103;52.246;8.052;2023-05-15T12:13:16;99990.88;;;21.85;54.44
31483;BME280;18103;52.246;8.052;2023-05-15T12:15:44;100005.97;;;21.86;54.76
31483;BME280;18103;52.246;8.052;2023-05-15T12:18:12;100002.06;;;21.88;55.45
31483;BME280;18103;52.246;8.052;2023-05-15T12:20:39;99996.06;;;21.93;55.83
31483;BME280;18103;52.246;8.052;2023-05-15T12:23:09;100009.75;;;22.18;55.56
31483;BME280;18103;52.246;8.052;2023-05-15T12:25:35;100003.16;;;22.28;55.09
31483;BME280;18103;52.246;8.052;2023-05-15T12:28:04;99996.66;;;21.82;54.13
31483;BME280;18103;52.246;8.052;2023-05-15T12:30:31;99998.34;;;21.83;54.11
31483;BME280;18103;52.246;8.052;2023-05-15T12:33:02;99989.19;;;21.70;54.99
31483;BME280;18103;52.246;8.052;2023-05-15T12:35:32;99982.00;;;21.98;55.39
31483;BME280;18103;52.246;8.052;2023-05-15T12:38:02;99991.19;;;22.50;55.14
31483;BME280;18103;52.246;8.052;2023-05-15T12:40:32;99990.72;;;22.80;55.04
31483;BME280;18103;52.246;8.052;2023-05-15T12:42:57;99985.38;;;22.47;54.93
31483;BME280;18103;52.246;8.052;2023-05-15T12:45:24;99986.44;;;22.46;54.58
31483;BME280;18103;52.246;8.052;2023-05-15T12:47:50;99983.94;;;22.51;55.13
31483;BME280;18103;52.246;8.052;2023-05-15T12:50:18;99975.44;;;22.14;55.07
31483;BME280;18103;52.246;8.052;2023-05-15T12:52:49;99979.81;;;22.42;53.85
31483;BME280;18103;52.246;8.052;2023-05-15T12:55:16;99973.75;;;22.80;54.78
31483;BME280;18103;52.246;8.052;2023-05-15T12:57:42;99971.09;;;22.46;54.94
31483;BME280;18103;52.246;8.052;2023-05-15T13:00:11;99969.44;;;22.65;54.43
31483;BME280;18103;52.246;8.052;2023-05-15T13:02:38;99971.50;;;22.63;53.50
31483;BME280;18103;52.246;8.052;2023-05-15T13:05:05;99969.44;;;22.52;54.52
31483;BME280;18103;52.246;8.052;2023-05-15T13:07:33;99972.72;;;22.07;53.44
31483;BME280;18103;52.246;8.052;2023-05-15T13:10:05;99967.69;;;21.64;54.27
31483;BME280;18103;52.246;8.052;2023-05-15T13:12:41;99971.09;;;21.99;55.21
31483;BME280;18103;52.246;8.052;2023-05-15T13:15:25;99965.72;;;22.46;53.98
31483;BME280;18103;52.246;8.052;2023-05-15T13:18:06;99968.03;;;22.36;53.44
31483;BME280;18103;52.246;8.052;2023-05-15T13:20:37;99963.47;;;22.36;53.55
31483;BME280;18103;52.246;8.052;2023-05-15T13:23:03;99966.13;;;22.30;53.44